sensor_id;sensor_type;location;lat;lon;timestamp;pressure;altitude;pressure_sealevel;temperature;humidity
788;BME280;16074;42.708;23.312;2023-02-28T00:01:28;140217.34;;;7.90;100.00
788;BME280;16074;42.708;23.312;2023-02-28T00:03:57;140219.75;;;7.91;100.00
788;BME280;16074;42.708;23.312;2023-02-28T00:06:26;140228.13;;;7.95;100.00
788;BME280;16074;42.708;23.312;2023-02-28T00:08:54;140219.75;;;7.91;100.00
788;BME280;16074;42.708;23.312;2023-02-28T00:11:22;140223.38;;;7.93;100.00
788;BME280;16074;42.708;23.312;2023-02-28T00:13:53;140210.16;;;7.87;100.00
788;BME280;16074;42.708;23.312;2023-02-28T00:16:22;140188.50;;;7.78;100.00
788;BME280;16074;42.708;23.312;2023-02-28T00:18:50;140180.13;;;7.75;100.00
788;BME280;16074;42.708;23.312;2023-02-28T00:21:19;140186.13;;;7.77;100.00
788;BME280;16074;42.708;23.312;2023-02-28T00:23:48;140213.78;;;7.89;100.00
788;BME280;16074;42.708;23.312;2023-02-28T00:26:16;140210.16;;;7.87;100.00
788;BME280;16074;42.708;23.312;2023-02-28T00:28:48;140211.38;;;7.88;100.00
788;BME280;16074;42.708;23.312;2023-02-28T00:31:18;140214.94;;;7.89;100.00
788;BME280;16074;42.708;23.312;2023-02-28T00:33:47;140222.16;;;7.92;100.00
788;BME280;16074;42.708;23.312;2023-02-28T00:36:16;140237.75;;;7.99;100.00
788;BME280;16074;42.708;23.312;2023-02-28T00:38:44;140237.75;;;7.99;100.00
788;BME280;16074;42.708;23.312;2023-02-28T00:41:12;140230.53;;;7.96;100.00
788;BME280;16074;42.708;23.312;2023-02-28T00:43:41;140228.13;;;7.95;100.00
788;BME280;16074;42.708;23.312;2023-02-28T00:46:10;140216.16;;;7.90;100.00
788;BME280;16074;42.708;23.312;2023-02-28T00:48:40;140219.75;;;7.91;100.00
788;BME280;16074;42.708;23.312;2023-02-28T00:51:08;140178.91;;;7.74;100.00
788;BME280;16074;42.708;23.312;2023-02-28T00:53:37;140190.91;;;7.79;100.00
788;BME280;16074;42.708;23.312;2023-02-28T00:56:05;140177.72;;;7.74;100.00
788;BME280;16074;42.708;23.312;2023-02-28T00:58:34;140169.31;;;7.70;100.00
788;BME280;16074;42.708;23.312;2023-02-28T01:01:03;140165.72;;;7.69;100.00
788;BME280;16074;42.708;23.312;2023-02-28T01:03:32;140168.13;;;7.70;100.00
788;BME280;16074;42.708;23.312;2023-02-28T01:06:01;140097.28;;;7.40;100.00
788;BME280;16074;42.708;23.312;2023-02-28T01:08:30;140051.66;;;7.21;100.00
788;BME280;16074;42.708;23.312;2023-02-28T01:11:07;140085.28;;;7.35;100.00
788;BME280;16074;42.708;23.312;2023-02-28T01:13:35;140096.06;;;7.40;100.00
788;BME280;16074;42.708;23.312;2023-02-28T01:16:04;140087.69;;;7.36;100.00
788;BME280;16074;42.708;23.312;2023-02-28T01:18:34;140098.47;;;7.41;100.00
788;BME280;16074;42.708;23.312;2023-02-28T01:21:05;140104.50;;;7.43;100.00
788;BME280;16074;42.708;23.312;2023-02-28T01:23:34;140104.50;;;7.43;100.00
788;BME280;16074;42.708;23.312;2023-02-28T01:26:06;140057.69;;;7.24;100.00
788;BME280;16074;42.708;23.312;2023-02-28T01:28:39;140092.47;;;7.38;100.00
788;BME280;16074;42.708;23.312;2023-02-28T01:31:07;140072.09;;;7.30;100.00
788;BME280;16074;42.708;23.312;2023-02-28T01:33:38;140064.88;;;7.27;100.00
788;BME280;16074;42.708;23.312;2023-02-28T01:36:10;140086.50;;;7.36;100.00
788;BME280;16074;42.708;23.312;2023-02-28T01:38:38;140063.66;;;7.26;100.00
788;BME280;16074;42.708;23.312;2023-02-28T01:41:09;140067.28;;;7.28;100.00
788;BME280;16074;42.708;23.312;2023-02-28T01:44:02;140072.09;;;7.30;100.00
788;BME280;16074;42.708;23.312;2023-02-28T01:46:32;140068.47;;;7.28;100.00
788;BME280;16074;42.708;23.312;2023-02-28T01:49:05;140075.66;;;7.31;100.00
788;BME280;16074;42.708;23.312;2023-02-28T01:51:41;140046.84;;;7.19;100.00
788;BME280;16074;42.708;23.312;2023-02-28T01:54:16;140030.03;;;7.12;100.00
788;BME280;16074;42.708;23.312;2023-02-28T01:56:49;140004.84;;;7.02;100.00
788;BME280;16074;42.708;23.312;2023-02-28T01:59:23;139932.91;;;6.72;100.00
788;BME280;16074;42.708;23.312;2023-02-28T02:01:54;139901.69;;;6.59;100.00
788;BME280;16074;42.708;23.312;2023-02-28T02:04:25;139872.91;;;6.47;100.00
788;BME280;16074;42.708;23.312;2023-02-28T02:06:57;139828.53;;;6.29;100.00
788;BME280;16074;42.708;23.312;2023-02-28T02:09:26;139790.16;;;6.13;100.00
788;BME280;16074;42.708;23.312;2023-02-28T02:11:55;139835.72;;;6.32;100.00
788;BME280;16074;42.708;23.312;2023-02-28T02:14:40;139774.59;;;6.06;100.00
788;BME280;16074;42.708;23.312;2023-02-28T02:17:20;139830.94;;;6.30;100.00
788;BME280;16074;42.708;23.312;2023-02-28T02:23:13;139800.97;;;6.17;100.00
788;BME280;16074;42.708;23.312;2023-02-28T02:25:53;139748.19;;;5.95;100.00
788;BME280;16074;42.708;23.312;2023-02-28T02:28:49;139753.00;;;5.97;100.00
788;BME280;16074;42.708;23.312;2023-02-28T02:31:48;139746.97;;;5.95;100.00
788;BME280;16074;42.708;23.312;2023-02-28T02:34:41;139746.97;;;5.95;100.00
788;BME280;16074;42.708;23.312;2023-02-28T02:37:22;139746.97;;;5.95;100.00
788;BME280;16074;42.708;23.312;2023-02-28T02:39:53;139762.59;;;6.01;100.00
788;BME280;16074;42.708;23.312;2023-02-28T02:42:28;139798.56;;;6.16;100.00
788;BME280;16074;42.708;23.312;2023-02-28T02:45:01;139804.53;;;6.19;100.00
788;BME280;16074;42.708;23.312;2023-02-28T02:47:31;139822.50;;;6.26;100.00
788;BME280;16074;42.708;23.312;2023-02-28T02:50:06;139821.34;;;6.26;100.00
788;BME280;16074;42.708;23.312;2023-02-28T02:52:39;139842.94;;;6.35;100.00
788;BME280;16074;42.708;23.312;2023-02-28T02:55:11;139860.91;;;6.42;100.00
788;BME280;16074;42.708;23.312;2023-02-28T02:57:43;139889.69;;;6.54;100.00
788;BME280;16074;42.708;23.312;2023-02-28T03:00:16;139910.06;;;6.63;100.00
788;BME280;16074;42.708;23.312;2023-02-28T03:02:47;139913.69;;;6.64;100.00
788;BME280;16074;42.708;23.312;2023-02-28T03:05:21;139907.66;;;6.62;100.00
788;BME280;16074;42.708;23.312;2023-02-28T03:07:51;139940.09;;;6.75;100.00
788;BME280;16074;42.708;23.312;2023-02-28T03:10:35;139940.09;;;6.75;100.00
788;BME280;16074;42.708;23.312;2023-02-28T03:13:41;139944.91;;;6.77;100.00
788;BME280;16074;42.708;23.312;2023-02-28T03:16:32;139948.47;;;6.79;100.00
788;BME280;16074;42.708;23.312;2023-02-28T03:19:12;139976.06;;;6.90;100.00
788;BME280;16074;42.708;23.312;2023-02-28T03:21:55;139978.44;;;6.91;100.00
788;BME280;16074;42.708;23.312;2023-02-28T03:24:31;139998.88;;;7.00;100.00
788;BME280;16074;42.708;23.312;2023-02-28T03:27:05;139989.28;;;6.96;100.00
788;BME280;16074;42.708;23.312;2023-02-28T03:29:38;140000.06;;;7.00;100.00
788;BME280;16074;42.708;23.312;2023-02-28T03:32:11;139980.84;;;6.92;100.00
788;BME280;16074;42.708;23.312;2023-02-28T03:34:48;139980.84;;;6.92;100.00
788;BME280;16074;42.708;23.312;2023-02-28T03:37:22;139986.88;;;6.95;100.00
788;BME280;16074;42.708;23.312;2023-02-28T03:39:55;139991.69;;;6.97;100.00
788;BME280;16074;42.708;23.312;2023-02-28T03:42:27;140012.06;;;7.05;100.00
788;BME280;16074;42.708;23.312;2023-02-28T03:44:59;140019.25;;;7.08;100.00
788;BME280;16074;42.708;23.312;2023-02-28T03:47:32;140026.47;;;7.11;100.00
788;BME280;16074;42.708;23.312;2023-02-28T03:50:06;140046.84;;;7.19;100.00
788;BME280;16074;42.708;23.312;2023-02-28T03:52:41;140057.69;;;7.24;100.00
788;BME280;16074;42.708;23.312;2023-02-28T03:55:13;140064.88;;;7.27;100.00
788;BME280;16074;42.708;23.312;2023-02-28T03:57:51;140078.06;;;7.32;100.00
788;BME280;16074;42.708;23.312;2023-02-28T04:00:28;140054.06;;;7.22;100.00
788;BME280;16074;42.708;23.312;2023-02-28T04:03:00;140046.84;;;7.19;100.00
788;BME280;16074;42.708;23.312;2023-02-28T04:05:29;140072.09;;;7.30;100.00
788;BME280;16074;42.708;23.312;2023-02-28T04:08:05;140086.50;;;7.36;100.00
788;BME280;16074;42.708;23.312;2023-02-28T04:10:33;140081.69;;;7.34;100.00
788;BME280;16074;42.708;23.312;2023-02-28T04:13:01;140081.69;;;7.34;100.00
788;BME280;16074;42.708;23.312;2023-02-28T04:15:30;140079.28;;;7.33;100.00
788;BME280;16074;42.708;23.312;2023-02-28T04:17:58;140061.25;;;7.25;100.00
788;BME280;16074;42.708;23.312;2023-02-28T04:20:27;140069.69;;;7.29;100.00
788;BME280;16074;42.708;23.312;2023-02-28T04:22:55;140076.91;;;7.32;100.00
788;BME280;16074;42.708;23.312;2023-02-28T04:25:24;140074.50;;;7.31;100.00
788;BME280;16074;42.708;23.312;2023-02-28T04:27:53;140081.69;;;7.34;100.00
788;BME280;16074;42.708;23.312;2023-02-28T04:30:21;140106.88;;;7.44;100.00
788;BME280;16074;42.708;23.312;2023-02-28T04:32:50;140082.88;;;7.34;100.00
788;BME280;16074;42.708;23.312;2023-02-28T04:35:18;140092.47;;;7.38;100.00
788;BME280;16074;42.708;23.312;2023-02-28T04:37:46;140091.25;;;7.38;100.00
788;BME280;16074;42.708;23.312;2023-02-28T04:40:15;140079.28;;;7.33;100.00
788;BME280;16074;42.708;23.312;2023-02-28T04:42:45;140064.88;;;7.27;100.00
788;BME280;16074;42.708;23.312;2023-02-28T04:45:13;140051.66;;;7.21;100.00
788;BME280;16074;42.708;23.312;2023-02-28T04:47:42;140076.91;;;7.32;100.00
788;BME280;16074;42.708;23.312;2023-02-28T04:50:10;140085.28;;;7.35;100.00
788;BME280;16074;42.708;23.312;2023-02-28T04:52:39;140081.69;;;7.34;100.00
788;BME280;16074;42.708;23.312;2023-02-28T04:55:08;140088.84;;;7.37;100.00
788;BME280;16074;42.708;23.312;2023-02-28T04:57:36;140093.66;;;7.39;100.00
788;BME280;16074;42.708;23.312;2023-02-28T05:00:07;140099.69;;;7.41;100.00
788;BME280;16074;42.708;23.312;2023-02-28T05:02:38;140110.47;;;7.46;100.00
788;BME280;16074;42.708;23.312;2023-02-28T05:05:06;140117.69;;;7.49;100.00
788;BME280;16074;42.708;23.312;2023-02-28T05:07:35;140108.06;;;7.45;100.00
788;BME280;16074;42.708;23.312;2023-02-28T05:10:04;140092.47;;;7.38;100.00
788;BME280;16074;42.708;23.312;2023-02-28T05:12:32;140103.25;;;7.43;100.00
788;BME280;16074;42.708;23.312;2023-02-28T05:15:00;140117.69;;;7.49;100.00
788;BME280;16074;42.708;23.312;2023-02-28T05:17:30;140122.47;;;7.51;100.00
788;BME280;16074;42.708;23.312;2023-02-28T05:19:58;140111.69;;;7.46;100.00
788;BME280;16074;42.708;23.312;2023-02-28T05:22:41;140114.09;;;7.47;100.00
788;BME280;16074;42.708;23.312;2023-02-28T05:25:10;140097.28;;;7.40;100.00
788;BME280;16074;42.708;23.312;2023-02-28T05:27:40;140097.28;;;7.40;100.00
788;BME280;16074;42.708;23.312;2023-02-28T05:30:10;140091.25;;;7.38;100.00
788;BME280;16074;42.708;23.312;2023-02-28T05:32:40;140086.50;;;7.36;100.00
788;BME280;16074;42.708;23.312;2023-02-28T05:35:11;140094.88;;;7.39;100.00
788;BME280;16074;42.708;23.312;2023-02-28T05:37:39;140106.88;;;7.44;100.00
788;BME280;16074;42.708;23.312;2023-02-28T05:40:08;140120.06;;;7.50;100.00
788;BME280;16074;42.708;23.312;2023-02-28T05:42:38;140122.47;;;7.51;100.00
788;BME280;16074;42.708;23.312;2023-02-28T05:45:07;140127.28;;;7.53;100.00
788;BME280;16074;42.708;23.312;2023-02-28T05:47:36;140128.50;;;7.53;100.00
788;BME280;16074;42.708;23.312;2023-02-28T05:50:07;140139.28;;;7.58;100.00
788;BME280;16074;42.708;23.312;2023-02-28T05:52:36;140141.69;;;7.59;100.00
788;BME280;16074;42.708;23.312;2023-02-28T05:55:05;140122.47;;;7.51;100.00
788;BME280;16074;42.708;23.312;2023-02-28T05:57:33;140138.13;;;7.57;100.00
788;BME280;16074;42.708;23.312;2023-02-28T06:00:03;140146.50;;;7.61;100.00
788;BME280;16074;42.708;23.312;2023-02-28T06:02:38;140154.94;;;7.64;100.00
788;BME280;16074;42.708;23.312;2023-02-28T06:05:13;140160.91;;;7.67;100.00
788;BME280;16074;42.708;23.312;2023-02-28T06:07:42;140162.09;;;7.67;100.00
788;BME280;16074;42.708;23.312;2023-02-28T06:10:11;140158.50;;;7.66;100.00
788;BME280;16074;42.708;23.312;2023-02-28T06:12:40;140177.72;;;7.74;100.00
788;BME280;16074;42.708;23.312;2023-02-28T06:15:12;140193.31;;;7.80;100.00
788;BME280;16074;42.708;23.312;2023-02-28T06:17:41;140212.53;;;7.88;100.00
788;BME280;16074;42.708;23.312;2023-02-28T06:20:12;140196.94;;;7.82;100.00
788;BME280;16074;42.708;23.312;2023-02-28T06:22:40;140214.94;;;7.89;100.00
788;BME280;16074;42.708;23.312;2023-02-28T06:25:09;140210.16;;;7.87;100.00
788;BME280;16074;42.708;23.312;2023-02-28T06:27:38;140214.94;;;7.89;100.00
788;BME280;16074;42.708;23.312;2023-02-28T06:30:07;140195.72;;;7.81;100.00
788;BME280;16074;42.708;23.312;2023-02-28T06:32:36;140217.34;;;7.90;100.00
788;BME280;16074;42.708;23.312;2023-02-28T06:35:04;140232.94;;;7.97;100.00
788;BME280;16074;42.708;23.312;2023-02-28T06:37:34;140244.97;;;8.02;100.00
788;BME280;16074;42.708;23.312;2023-02-28T06:40:03;140253.41;;;8.05;100.00
788;BME280;16074;42.708;23.312;2023-02-28T06:42:34;140269.00;;;8.12;100.00
788;BME280;16074;42.708;23.312;2023-02-28T06:45:03;140244.97;;;8.02;100.00
788;BME280;16074;42.708;23.312;2023-02-28T06:47:36;140237.75;;;7.99;100.00
788;BME280;16074;42.708;23.312;2023-02-28T06:50:06;140240.16;;;8.00;100.00
788;BME280;16074;42.708;23.312;2023-02-28T06:52:36;140263.00;;;8.09;100.00
788;BME280;16074;42.708;23.312;2023-02-28T06:55:06;140266.59;;;8.11;100.00
788;BME280;16074;42.708;23.312;2023-02-28T06:57:35;140251.00;;;8.04;100.00
788;BME280;16074;42.708;23.312;2023-02-28T07:00:05;140218.56;;;7.91;100.00
788;BME280;16074;42.708;23.312;2023-02-28T07:02:34;140240.16;;;8.00;100.00
788;BME280;16074;42.708;23.312;2023-02-28T07:05:03;140263.00;;;8.09;100.00
788;BME280;16074;42.708;23.312;2023-02-28T07:07:31;140255.78;;;8.06;100.00
788;BME280;16074;42.708;23.312;2023-02-28T07:10:01;140256.97;;;8.07;100.00
788;BME280;16074;42.708;23.312;2023-02-28T07:12:29;140253.41;;;8.05;100.00
788;BME280;16074;42.708;23.312;2023-02-28T07:14:58;140269.00;;;8.12;100.00
788;BME280;16074;42.708;23.312;2023-02-28T07:17:26;140290.66;;;8.21;100.00
788;BME280;16074;42.708;23.312;2023-02-28T07:19:54;140289.50;;;8.20;100.00
788;BME280;16074;42.708;23.312;2023-02-28T07:22:23;140300.28;;;8.25;100.00
788;BME280;16074;42.708;23.312;2023-02-28T07:24:51;140325.50;;;8.35;100.00
788;BME280;16074;42.708;23.312;2023-02-28T07:27:21;140318.28;;;8.32;100.00
788;BME280;16074;42.708;23.312;2023-02-28T07:29:52;140331.53;;;8.37;100.00
788;BME280;16074;42.708;23.312;2023-02-28T07:32:21;140350.78;;;8.45;100.00
788;BME280;16074;42.708;23.312;2023-02-28T07:34:50;140337.53;;;8.40;100.00
788;BME280;16074;42.708;23.312;2023-02-28T07:37:18;140349.53;;;8.45;100.00
788;BME280;16074;42.708;23.312;2023-02-28T07:39:46;140332.72;;;8.38;100.00
788;BME280;16074;42.708;23.312;2023-02-28T07:42:15;140360.38;;;8.49;100.00
788;BME280;16074;42.708;23.312;2023-02-28T07:44:45;140374.75;;;8.55;100.00
788;BME280;16074;42.708;23.312;2023-02-28T07:47:13;140383.19;;;8.59;100.00
788;BME280;16074;42.708;23.312;2023-02-28T07:49:41;140329.13;;;8.36;100.00
788;BME280;16074;42.708;23.312;2023-02-28T07:52:09;140301.47;;;8.25;100.00
788;BME280;16074;42.708;23.312;2023-02-28T07:54:38;140318.28;;;8.32;100.00
788;BME280;16074;42.708;23.312;2023-02-28T07:57:06;140344.72;;;8.43;100.00
788;BME280;16074;42.708;23.312;2023-02-28T07:59:34;140383.19;;;8.59;100.00
788;BME280;16074;42.708;23.312;2023-02-28T08:02:04;140408.44;;;8.69;100.00
788;BME280;16074;42.708;23.312;2023-02-28T08:04:32;140430.06;;;8.78;100.00
788;BME280;16074;42.708;23.312;2023-02-28T08:07:00;140448.09;;;8.86;100.00
788;BME280;16074;42.708;23.312;2023-02-28T08:09:29;140490.19;;;9.03;100.00
788;BME280;16074;42.708;23.312;2023-02-28T08:11:57;140544.31;;;9.26;100.00
788;BME280;16074;42.708;23.312;2023-02-28T08:14:26;140588.78;;;9.44;100.00
788;BME280;16074;42.708;23.312;2023-02-28T08:16:54;140582.75;;;9.42;100.00
788;BME280;16074;42.708;23.312;2023-02-28T08:19:24;140585.16;;;9.43;100.00
788;BME280;16074;42.708;23.312;2023-02-28T08:21:52;140614.03;;;9.54;100.00
788;BME280;16074;42.708;23.312;2023-02-28T08:24:21;140638.09;;;9.64;100.00
788;BME280;16074;42.708;23.312;2023-02-28T08:26:49;140663.34;;;9.75;100.00
788;BME280;16074;42.708;23.312;2023-02-28T08:29:17;140679.03;;;9.81;100.00
788;BME280;16074;42.708;23.312;2023-02-28T08:31:45;140704.28;;;9.92;100.00
788;BME280;16074;42.708;23.312;2023-02-28T08:34:15;140712.69;;;9.95;100.00
788;BME280;16074;42.708;23.312;2023-02-28T08:36:45;140726.00;;;10.01;100.00
788;BME280;16074;42.708;23.312;2023-02-28T08:39:13;140765.69;;;10.17;100.00
788;BME280;16074;42.708;23.312;2023-02-28T08:41:42;140800.59;;;10.32;100.00
788;BME280;16074;42.708;23.312;2023-02-28T08:44:10;140833.13;;;10.45;100.00
788;BME280;16074;42.708;23.312;2023-02-28T08:46:39;140862.00;;;10.57;100.00
788;BME280;16074;42.708;23.312;2023-02-28T08:49:09;140840.31;;;10.48;100.00
788;BME280;16074;42.708;23.312;2023-02-28T08:51:38;140871.63;;;10.61;100.00
788;BME280;16074;42.708;23.312;2023-02-28T08:54:09;140912.59;;;10.78;100.00
788;BME280;16074;42.708;23.312;2023-02-28T08:56:39;140948.75;;;10.93;100.00
788;BME280;16074;42.708;23.312;2023-02-28T08:59:09;140981.25;;;11.06;100.00
788;BME280;16074;42.708;23.312;2023-02-28T09:01:37;140993.28;;;11.11;100.00
788;BME280;16074;42.708;23.312;2023-02-28T09:04:05;140982.44;;;11.07;100.00
788;BME280;16074;42.708;23.312;2023-02-28T09:06:35;141010.16;;;11.18;100.00
788;BME280;16074;42.708;23.312;2023-02-28T09:09:03;140994.47;;;11.12;100.00
788;BME280;16074;42.708;23.312;2023-02-28T09:11:35;141011.34;;;11.19;100.00
788;BME280;16074;42.708;23.312;2023-02-28T09:14:04;141010.16;;;11.18;100.00
788;BME280;16074;42.708;23.312;2023-02-28T09:16:33;141004.13;;;11.16;100.00
788;BME280;16074;42.708;23.312;2023-02-28T09:19:02;141002.94;;;11.15;100.00
788;BME280;16074;42.708;23.312;2023-02-28T09:21:31;141021.00;;;11.23;100.00
788;BME280;16074;42.708;23.312;2023-02-28T09:23:59;141017.41;;;11.21;100.00
788;BME280;16074;42.708;23.312;2023-02-28T09:26:27;140965.59;;;11.00;100.00
788;BME280;16074;42.708;23.312;2023-02-28T09:29:10;140928.22;;;10.84;100.00
788;BME280;16074;42.708;23.312;2023-02-28T09:31:39;140801.81;;;10.32;100.00
788;BME280;16074;42.708;23.312;2023-02-28T09:34:07;140769.34;;;10.19;100.00
788;BME280;16074;42.708;23.312;2023-02-28T09:36:36;140806.66;;;10.34;100.00
788;BME280;16074;42.708;23.312;2023-02-28T09:39:12;140830.72;;;10.44;100.00
788;BME280;16074;42.708;23.312;2023-02-28T09:41:44;140810.22;;;10.36;100.00
788;BME280;16074;42.708;23.312;2023-02-28T09:44:24;140793.38;;;10.29;100.00
788;BME280;16074;42.708;23.312;2023-02-28T09:46:58;140825.91;;;10.42;100.00
788;BME280;16074;42.708;23.312;2023-02-28T09:49:33;140872.88;;;10.62;100.00
788;BME280;16074;42.708;23.312;2023-02-28T09:52:06;140899.38;;;10.72;100.00
788;BME280;16074;42.708;23.312;2023-02-28T09:54:37;140921.00;;;10.81;100.00
788;BME280;16074;42.708;23.312;2023-02-28T09:57:13;140936.69;;;10.88;100.00
788;BME280;16074;42.708;23.312;2023-02-28T09:59:51;140949.91;;;10.93;100.00
788;BME280;16074;42.708;23.312;2023-02-28T10:02:41;140993.28;;;11.11;100.00
788;BME280;16074;42.708;23.312;2023-02-28T10:05:14;141022.22;;;11.23;100.00
788;BME280;16074;42.708;23.312;2023-02-28T10:07:57;141046.28;;;11.33;100.00
788;BME280;16074;42.708;23.312;2023-02-28T10:10:34;141059.56;;;11.39;100.00
788;BME280;16074;42.708;23.312;2023-02-28T10:13:10;141086.09;;;11.50;100.00
788;BME280;16074;42.708;23.312;2023-02-28T10:15:42;141129.50;;;11.68;100.00
788;BME280;16074;42.708;23.312;2023-02-28T10:18:15;141169.31;;;11.84;100.00
788;BME280;16074;42.708;23.312;2023-02-28T10:20:49;141200.63;;;11.97;100.00
788;BME280;16074;42.708;23.312;2023-02-28T10:23:21;141201.84;;;11.97;100.00
788;BME280;16074;42.708;23.312;2023-02-28T10:25:55;141199.44;;;11.96;100.00
788;BME280;16074;42.708;23.312;2023-02-28T10:28:26;141194.59;;;11.94;100.00
788;BME280;16074;42.708;23.312;2023-02-28T10:30:59;141207.84;;;12.00;100.00
788;BME280;16074;42.708;23.312;2023-02-28T10:33:30;141224.75;;;12.07;100.00
788;BME280;16074;42.708;23.312;2023-02-28T10:35:59;141239.22;;;12.13;100.00
788;BME280;16074;42.708;23.312;2023-02-28T10:38:32;141252.47;;;12.18;99.55
788;BME280;16074;42.708;23.312;2023-02-28T10:41:05;141286.25;;;12.32;99.51
788;BME280;16074;42.708;23.312;2023-02-28T10:43:34;141327.25;;;12.49;100.00
788;BME280;16074;42.708;23.312;2023-02-28T10:46:11;141382.78;;;12.72;100.00
788;BME280;16074;42.708;23.312;2023-02-28T10:48:44;141433.47;;;12.93;97.31
788;BME280;16074;42.708;23.312;2023-02-28T10:51:16;141464.84;;;13.06;95.73
788;BME280;16074;42.708;23.312;2023-02-28T10:53:48;141517.97;;;13.28;96.14
788;BME280;16074;42.708;23.312;2023-02-28T10:56:27;141610.91;;;13.66;94.81
788;BME280;16074;42.708;23.312;2023-02-28T10:59:00;141660.47;;;13.87;92.19
788;BME280;16074;42.708;23.312;2023-02-28T11:01:38;141729.38;;;14.15;91.16
788;BME280;16074;42.708;23.312;2023-02-28T11:04:18;141766.81;;;14.31;88.04
788;BME280;16074;42.708;23.312;2023-02-28T11:06:56;141760.75;;;14.28;87.07
788;BME280;16074;42.708;23.312;2023-02-28T11:09:29;141819.94;;;14.52;84.26
788;BME280;16074;42.708;23.312;2023-02-28T11:11:58;141869.53;;;14.73;86.93
788;BME280;16074;42.708;23.312;2023-02-28T11:14:29;141920.28;;;14.94;83.93
788;BME280;16074;42.708;23.312;2023-02-28T11:17:11;141897.34;;;14.84;82.85
788;BME280;16074;42.708;23.312;2023-02-28T11:19:44;141921.50;;;14.94;81.65
788;BME280;16074;42.708;23.312;2023-02-28T11:22:18;141892.50;;;14.82;80.37
788;BME280;16074;42.708;23.312;2023-02-28T11:24:50;141938.44;;;15.01;80.17
788;BME280;16074;42.708;23.312;2023-02-28T11:27:40;141928.78;;;14.97;78.65
788;BME280;16074;42.708;23.312;2023-02-28T11:30:31;141911.84;;;14.90;80.21
788;BME280;16074;42.708;23.312;2023-02-28T11:33:20;141943.25;;;15.03;80.42
788;BME280;16074;42.708;23.312;2023-02-28T11:35:50;141992.84;;;15.24;78.05
788;BME280;16074;42.708;23.312;2023-02-28T11:38:19;142067.88;;;15.54;78.06
788;BME280;16074;42.708;23.312;2023-02-28T11:40:53;142102.94;;;15.69;73.39
788;BME280;16074;42.708;23.312;2023-02-28T11:43:37;142067.88;;;15.54;72.77
788;BME280;16074;42.708;23.312;2023-02-28T11:46:19;142101.75;;;15.68;71.01
788;BME280;16074;42.708;23.312;2023-02-28T11:48:57;142066.69;;;15.54;72.17
788;BME280;16074;42.708;23.312;2023-02-28T11:51:32;142118.69;;;15.75;73.38
788;BME280;16074;42.708;23.312;2023-02-28T11:54:15;142147.69;;;15.87;70.99
788;BME280;16074;42.708;23.312;2023-02-28T11:56:52;142159.81;;;15.92;70.74
788;BME280;16074;42.708;23.312;2023-02-28T11:59:42;142200.97;;;16.09;68.50
788;BME280;16074;42.708;23.312;2023-02-28T12:02:23;142193.69;;;16.06;66.92
788;BME280;16074;42.708;23.312;2023-02-28T12:05:08;142207.03;;;16.12;67.21
788;BME280;16074;42.708;23.312;2023-02-28T12:07:45;142234.84;;;16.23;65.75
788;BME280;16074;42.708;23.312;2023-02-28T12:10:20;142246.97;;;16.28;65.13
788;BME280;16074;42.708;23.312;2023-02-28T12:13:00;142222.75;;;16.18;65.54
788;BME280;16074;42.708;23.312;2023-02-28T12:15:57;142204.63;;;16.11;65.38
788;BME280;16074;42.708;23.312;2023-02-28T12:18:53;142177.97;;;16.00;66.25
788;BME280;16074;42.708;23.312;2023-02-28T12:21:38;142165.88;;;15.95;66.67
788;BME280;16074;42.708;23.312;2023-02-28T12:24:50;142105.34;;;15.70;65.97
788;BME280;16074;42.708;23.312;2023-02-28T12:27:25;142109.00;;;15.71;66.71
788;BME280;16074;42.708;23.312;2023-02-28T12:29:58;142096.91;;;15.66;65.39
788;BME280;16074;42.708;23.312;2023-02-28T12:32:32;142117.47;;;15.75;66.15
788;BME280;16074;42.708;23.312;2023-02-28T12:35:04;142136.81;;;15.83;66.88
788;BME280;16074;42.708;23.312;2023-02-28T12:37:38;142140.47;;;15.84;66.57
788;BME280;16074;42.708;23.312;2023-02-28T12:40:12;142141.66;;;15.85;66.15
788;BME280;16074;42.708;23.312;2023-02-28T12:42:43;142124.72;;;15.78;66.12
788;BME280;16074;42.708;23.312;2023-02-28T12:45:18;142081.16;;;15.60;66.13
788;BME280;16074;42.708;23.312;2023-02-28T12:47:50;142006.19;;;15.29;67.10
788;BME280;16074;42.708;23.312;2023-02-28T12:50:22;141995.28;;;15.25;67.84
788;BME280;16074;42.708;23.312;2023-02-28T12:52:58;141988.03;;;15.22;68.11
788;BME280;16074;42.708;23.312;2023-02-28T12:55:33;141998.88;;;15.26;67.99
788;BME280;16074;42.708;23.312;2023-02-28T12:58:10;141946.88;;;15.05;67.95
788;BME280;16074;42.708;23.312;2023-02-28T13:00:56;141917.88;;;14.93;68.55
788;BME280;16074;42.708;23.312;2023-02-28T13:03:49;141904.59;;;14.87;68.26
788;BME280;16074;42.708;23.312;2023-02-28T13:06:32;141870.72;;;14.73;69.91
788;BME280;16074;42.708;23.312;2023-02-28T13:09:11;141877.97;;;14.76;71.23
788;BME280;16074;42.708;23.312;2023-02-28T13:11:43;141867.13;;;14.72;70.69
788;BME280;16074;42.708;23.312;2023-02-28T13:14:21;141873.16;;;14.74;70.67
788;BME280;16074;42.708;23.312;2023-02-28T13:16:55;141874.34;;;14.75;71.51
788;BME280;16074;42.708;23.312;2023-02-28T13:19:26;141852.63;;;14.66;70.98
788;BME280;16074;42.708;23.312;2023-02-28T13:21:56;141846.53;;;14.63;70.70
788;BME280;16074;42.708;23.312;2023-02-28T13:24:43;141830.84;;;14.57;70.98
788;BME280;16074;42.708;23.312;2023-02-28T13:27:34;141807.84;;;14.47;70.94
788;BME280;16074;42.708;23.312;2023-02-28T13:33:26;141774.06;;;14.33;70.28